createdAt,value
2023-04-14T00:01:18.606Z,41.15
2023-04-14T00:03:53.070Z,39.27
2023-04-14T00:06:24.152Z,41.05
2023-04-14T00:08:55.270Z,40.98
2023-04-14T00:11:26.227Z,42.30
2023-04-14T00:13:58.751Z,41.60
2023-04-14T00:16:30.149Z,41.88
2023-04-14T00:19:01.498Z,42.58
2023-04-14T00:21:32.772Z,43.23
2023-04-14T00:24:03.768Z,42.08
2023-04-14T00:26:35.183Z,42.10
2023-04-14T00:29:06.168Z,42.27
2023-04-14T00:31:37.250Z,43.55
2023-04-14T00:34:08.405Z,44.18
2023-04-14T00:36:39.387Z,43.78
2023-04-14T00:39:10.365Z,45.17
2023-04-14T00:41:41.356Z,44.67
2023-04-14T00:44:12.528Z,43.80
2023-04-14T00:46:44.827Z,42.95
2023-04-14T00:49:15.786Z,45.67
2023-04-14T00:51:48.310Z,44.15
2023-04-14T00:54:21.263Z,43.38
2023-04-14T00:56:54.040Z,44.30
2023-04-14T00:59:25.047Z,45.12
2023-04-14T01:01:56.314Z,45.12
2023-04-14T01:04:36.981Z,44.75
2023-04-14T01:07:01.083Z,43.75
2023-04-14T01:09:32.555Z,46.48
2023-04-14T01:12:18.226Z,45.43
2023-04-14T01:14:51.663Z,45.40
2023-04-14T01:17:30.832Z,44.63
2023-04-14T01:20:13.821Z,46.73
2023-04-14T01:23:11.700Z,44.63
2023-04-14T01:26:13.923Z,44.63
2023-04-14T01:29:00.025Z,45.65
2023-04-14T01:31:34.025Z,44.83
2023-04-14T01:34:19.826Z,45.10
2023-04-14T01:37:05.492Z,45.45
2023-04-14T01:39:50.781Z,44.75
2023-04-14T01:42:24.160Z,45.65
2023-04-14T01:44:57.844Z,44.30
2023-04-14T01:47:30.548Z,44.10
2023-04-14T01:50:03.556Z,43.75
2023-04-14T01:52:36.203Z,44.25
2023-04-14T01:55:10.890Z,41.75
2023-04-14T01:57:42.894Z,45.28
2023-04-14T02:00:15.435Z,44.88
2023-04-14T02:02:48.189Z,44.08
2023-04-14T02:05:22.349Z,44.13
2023-04-14T02:07:55.651Z,44.18
2023-04-14T02:10:27.256Z,45.95
2023-04-14T02:12:59.948Z,44.53
2023-04-14T02:15:32.820Z,45.48
2023-04-14T02:18:06.260Z,43.25
2023-04-14T02:20:39.596Z,45.95
2023-04-14T02:23:10.718Z,44.58
2023-04-14T02:25:44.262Z,46.02
2023-04-14T02:28:17.681Z,44.50
2023-04-14T02:30:51.344Z,43.87
2023-04-14T02:33:27.909Z,45.67
2023-04-14T02:36:07.538Z,43.63
2023-04-14T02:38:43.718Z,41.35
2023-04-14T02:41:17.126Z,43.92
2023-04-14T02:43:51.023Z,46.05
2023-04-14T02:46:23.637Z,43.80
2023-04-14T02:48:56.590Z,44.20
2023-04-14T02:51:28.787Z,43.48
2023-04-14T02:53:59.974Z,45.52
2023-04-14T02:56:31.665Z,42.55
2023-04-14T02:59:03.421Z,41.90
2023-04-14T03:01:36.233Z,43.52
2023-04-14T03:04:07.609Z,42.38
2023-04-14T03:06:40.757Z,43.17
2023-04-14T03:09:12.041Z,43.30
2023-04-14T03:11:44.541Z,41.15
2023-04-14T03:14:16.842Z,43.98
2023-04-14T03:16:48.529Z,42.60
2023-04-14T03:19:24.179Z,41.50
2023-04-14T03:21:56.474Z,42.93
2023-04-14T03:24:30.060Z,42.13
2023-04-14T03:27:03.495Z,41.90
2023-04-14T03:29:36.891Z,42.23
2023-04-14T03:32:09.846Z,41.50
2023-04-14T03:34:43.397Z,41.80
2023-04-14T03:37:16.002Z,41.13
2023-04-14T03:39:47.180Z,40.67
2023-04-14T03:42:32.224Z,41.90
2023-04-14T03:45:04.724Z,42.40
2023-04-14T03:47:35.858Z,39.83
2023-04-14T03:50:10.389Z,42.50
2023-04-14T03:52:42.837Z,42.60
2023-04-14T03:55:15.965Z,42.05
2023-04-14T03:57:47.353Z,40.50
2023-04-14T04:00:20.710Z,41.45
2023-04-14T04:02:52.522Z,41.68
2023-04-14T04:05:24.569Z,38.67
2023-04-14T04:07:56.353Z,39.15
2023-04-14T04:10:27.632Z,41.28
2023-04-14T04:12:59.677Z,38.98
2023-04-14T04:15:36.314Z,42.93
2023-04-14T04:18:10.889Z,39.70
2023-04-14T04:20:43.071Z,40.67
2023-04-14T04:23:17.262Z,39.45
2023-04-14T04:25:48.491Z,40.98
2023-04-14T04:28:20.702Z,41.65
2023-04-14T04:30:53.016Z,43.05
2023-04-14T04:33:26.864Z,38.95
2023-04-14T04:35:58.981Z,37.95
2023-04-14T04:38:30.121Z,39.05
2023-04-14T04:41:01.217Z,40.20
2023-04-14T04:43:32.355Z,39.08
2023-04-14T04:46:14.679Z,42.62
2023-04-14T04:48:45.736Z,41.50
2023-04-14T04:51:18.101Z,40.70
2023-04-14T04:53:49.181Z,39.10
2023-04-14T04:56:20.818Z,39.67
2023-04-14T04:58:53.955Z,39.25
2023-04-14T05:01:24.775Z,39.27
2023-04-14T05:03:55.944Z,42.38
2023-04-14T05:06:27.706Z,39.80
2023-04-14T05:08:59.278Z,40.48
2023-04-14T05:11:30.724Z,38.78
2023-04-14T05:14:04.153Z,39.90
2023-04-14T05:16:35.273Z,44.77
2023-04-14T05:19:06.364Z,41.45
2023-04-14T05:21:37.439Z,40.90
2023-04-14T05:24:10.095Z,39.42
2023-04-14T05:29:13.661Z,39.13
2023-04-14T05:31:44.779Z,42.10
2023-04-14T05:34:16.672Z,39.35
2023-04-14T05:36:47.756Z,39.08
2023-04-14T05:39:18.736Z,37.35
2023-04-14T05:41:49.765Z,41.75
2023-04-14T05:44:20.867Z,41.53
2023-04-14T05:46:51.996Z,40.30
2023-04-14T05:49:23.665Z,39.75
2023-04-14T05:51:55.890Z,41.08
2023-04-14T05:54:26.967Z,38.35
2023-04-14T05:56:58.746Z,39.45
2023-04-14T05:59:29.834Z,38.00
2023-04-14T06:02:02.245Z,40.67
2023-04-14T06:04:33.542Z,37.03
2023-04-14T06:07:05.091Z,37.25
2023-04-14T06:09:36.215Z,36.80
2023-04-14T06:12:07.564Z,36.40
2023-04-14T06:14:38.652Z,38.42
2023-04-14T06:17:09.744Z,39.03
2023-04-14T06:19:40.861Z,39.73
2023-04-14T06:22:11.939Z,40.92
2023-04-14T06:24:43.402Z,39.67
2023-04-14T06:27:14.505Z,38.80
2023-04-14T06:29:45.405Z,38.98
2023-04-14T06:32:16.538Z,36.88
2023-04-14T06:34:51.333Z,40.00
2023-04-14T06:37:25.834Z,41.05
2023-04-14T06:40:10.078Z,39.65
2023-04-14T06:42:55.511Z,42.50
2023-04-14T06:45:25.956Z,35.75
2023-04-14T06:48:00.641Z,36.13
2023-04-14T06:50:31.818Z,36.53
2023-04-14T06:53:05.816Z,37.78
2023-04-14T06:55:38.208Z,41.15
2023-04-14T06:58:09.362Z,37.70
2023-04-14T07:00:42.399Z,37.60
2023-04-14T07:03:22.713Z,37.20
2023-04-14T07:05:47.883Z,37.88
2023-04-14T07:08:33.686Z,38.42
2023-04-14T07:13:35.538Z,37.40
2023-04-14T07:16:10.504Z,36.70
2023-04-14T07:18:42.940Z,42.40
2023-04-14T07:21:14.088Z,38.50
2023-04-14T07:23:45.164Z,39.08
2023-04-14T07:26:16.675Z,36.15
2023-04-14T07:28:48.269Z,36.90
2023-04-14T07:31:19.413Z,37.48
2023-04-14T07:33:50.578Z,37.23
2023-04-14T07:36:21.685Z,35.63
2023-04-14T07:38:53.240Z,38.05
2023-04-14T07:41:24.356Z,36.35
2023-04-14T07:43:56.687Z,37.42
2023-04-14T07:46:27.916Z,38.50
2023-04-14T07:48:59.046Z,41.70
2023-04-14T07:51:30.114Z,39.27
2023-04-14T07:54:02.399Z,37.58
2023-04-14T07:56:33.799Z,38.17
2023-04-14T07:59:04.913Z,37.35
2023-04-14T08:01:36.048Z,38.85
2023-04-14T08:04:07.557Z,38.10
2023-04-14T08:06:38.814Z,38.48
2023-04-14T08:09:09.914Z,38.63
2023-04-14T08:11:41.023Z,40.98
2023-04-14T08:14:12.385Z,38.40
2023-04-14T08:16:43.557Z,41.40
2023-04-14T08:19:14.739Z,42.73
2023-04-14T08:21:45.831Z,40.85
2023-04-14T08:24:17.101Z,38.05
2023-04-14T08:26:48.163Z,41.55
2023-04-14T08:29:19.269Z,40.50
2023-04-14T08:31:50.554Z,39.90
2023-04-14T08:34:28.186Z,37.63
2023-04-14T08:36:54.419Z,39.98
2023-04-14T08:39:25.502Z,38.05
2023-04-14T08:41:58.132Z,40.03
2023-04-14T08:44:29.231Z,38.55
2023-04-14T08:47:00.689Z,40.20
2023-04-14T08:49:46.739Z,37.35
2023-04-14T08:52:20.146Z,38.90
2023-04-14T08:54:52.909Z,38.75
2023-04-14T08:57:26.430Z,39.20
2023-04-14T09:00:02.883Z,37.93
2023-04-14T09:02:35.836Z,38.73
2023-04-14T09:05:08.075Z,38.65
2023-04-14T09:07:40.217Z,38.80
2023-04-14T09:10:13.125Z,37.08
2023-04-14T09:12:45.133Z,40.70
2023-04-14T09:15:17.652Z,41.10
2023-04-14T09:17:48.823Z,37.65
2023-04-14T09:20:34.707Z,36.63
2023-04-14T09:22:52.369Z,39.15
2023-04-14T09:25:24.540Z,40.67
2023-04-14T09:27:55.615Z,37.53
2023-04-14T09:30:26.917Z,35.73
2023-04-14T09:32:58.531Z,36.70
2023-04-14T09:35:37.657Z,36.25
2023-04-14T09:38:09.940Z,37.95
2023-04-14T09:40:42.292Z,38.63
2023-04-14T09:43:27.749Z,38.05
2023-04-14T09:45:59.983Z,38.53
2023-04-14T09:48:31.164Z,39.42
2023-04-14T09:51:10.680Z,38.70
2023-04-14T09:53:42.955Z,42.70
2023-04-14T09:56:14.972Z,37.63
2023-04-14T09:58:47.365Z,36.68
2023-04-14T10:01:20.247Z,39.67
2023-04-14T10:03:52.287Z,37.45
2023-04-14T10:06:25.171Z,41.20
2023-04-14T10:08:57.560Z,39.58
2023-04-14T10:11:34.346Z,38.20
2023-04-14T10:14:07.243Z,38.58
2023-04-14T10:16:38.359Z,38.50
2023-04-14T10:19:09.605Z,39.33
2023-04-14T10:21:40.784Z,37.73
2023-04-14T10:24:12.695Z,37.83
2023-04-14T10:26:45.068Z,37.53
2023-04-14T10:29:16.159Z,38.88
2023-04-14T10:31:49.664Z,37.60
2023-04-14T10:34:21.606Z,39.70
2023-04-14T10:36:52.825Z,38.33
2023-04-14T10:39:27.683Z,37.90
2023-04-14T10:41:59.268Z,37.17
2023-04-14T10:44:35.716Z,37.98
2023-04-14T10:47:09.178Z,37.53
2023-04-14T10:49:45.575Z,37.20
2023-04-14T10:52:20.309Z,38.13
2023-04-14T10:54:59.948Z,38.13
2023-04-14T10:57:31.732Z,38.60
2023-04-14T11:00:03.222Z,38.67
2023-04-14T11:02:38.071Z,36.98
2023-04-14T11:05:13.108Z,37.90
2023-04-14T11:08:02.131Z,38.88
2023-04-14T11:10:36.060Z,38.67
2023-04-14T11:13:12.503Z,47.30
2023-04-14T11:15:52.011Z,40.80
2023-04-14T11:18:46.569Z,38.50
2023-04-14T11:21:19.149Z,39.05
2023-04-14T11:23:50.332Z,39.88
2023-04-14T11:26:23.212Z,38.48
2023-04-14T11:28:55.695Z,40.35
2023-04-14T11:31:28.968Z,39.05
2023-04-14T11:34:00.028Z,39.25
2023-04-14T11:36:33.347Z,38.50
2023-04-14T11:39:08.225Z,41.55
2023-04-14T11:41:39.837Z,39.53
2023-04-14T11:44:11.347Z,38.00
2023-04-14T11:46:42.829Z,38.05
2023-04-14T11:49:14.202Z,40.03
2023-04-14T11:51:45.386Z,38.28
2023-04-14T11:54:16.552Z,40.73
2023-04-14T11:56:47.712Z,40.12
2023-04-14T11:59:18.793Z,39.30
2023-04-14T12:01:52.521Z,40.78
2023-04-14T12:04:24.947Z,39.55
2023-04-14T12:06:56.214Z,38.80
2023-04-14T12:09:32.364Z,39.45
2023-04-14T12:12:05.553Z,41.48
2023-04-14T12:14:37.294Z,38.67
2023-04-14T12:17:09.124Z,40.98
2023-04-14T12:19:40.526Z,39.33
2023-04-14T12:22:11.725Z,38.88
2023-04-14T12:24:44.527Z,39.03
2023-04-14T12:27:16.844Z,38.48
2023-04-14T12:29:49.350Z,38.88
2023-04-14T12:32:21.996Z,40.80
2023-04-14T12:34:58.805Z,40.38
2023-04-14T12:37:30.630Z,39.85
2023-04-14T12:40:02.783Z,39.88
2023-04-14T12:42:54.300Z,40.10
2023-04-14T12:45:25.461Z,39.60
2023-04-14T12:48:00.641Z,39.63
2023-04-14T12:50:33.320Z,38.95
2023-04-14T12:56:15.088Z,41.20
2023-04-14T12:58:51.261Z,42.13
2023-04-14T13:01:23.824Z,42.08
2023-04-14T13:03:59.879Z,41.70
2023-04-14T13:06:32.674Z,40.23
2023-04-14T13:09:04.032Z,43.45
2023-04-14T13:11:35.527Z,43.85
2023-04-14T13:14:07.802Z,43.78
2023-04-14T13:16:39.257Z,43.08
2023-04-14T13:19:10.670Z,43.42
2023-04-14T13:21:42.585Z,43.38
2023-04-14T13:24:13.987Z,43.52
2023-04-14T13:26:46.398Z,42.58
2023-04-14T13:29:18.803Z,43.38
2023-04-14T13:31:49.987Z,43.13
2023-04-14T13:34:22.772Z,44.93
2023-04-14T13:36:54.325Z,44.60
2023-04-14T13:39:25.684Z,45.33
2023-04-14T13:41:59.665Z,46.85
2023-04-14T13:44:42.418Z,49.15
2023-04-14T13:47:13.674Z,50.58
2023-04-14T13:49:45.030Z,56.60
2023-04-14T13:52:16.134Z,60.80
2023-04-14T13:54:59.350Z,59.33
2023-04-14T13:57:30.364Z,54.20
2023-04-14T14:00:02.115Z,51.42
2023-04-14T14:02:34.496Z,52.30
2023-04-14T14:05:06.399Z,51.90
2023-04-14T14:07:38.013Z,53.02
2023-04-14T14:10:12.797Z,58.90
2023-04-14T14:12:43.917Z,56.28
2023-04-14T14:15:15.638Z,55.10
2023-04-14T14:17:47.297Z,53.58
2023-04-14T14:20:18.312Z,53.60
2023-04-14T14:22:49.630Z,54.38
2023-04-14T14:25:21.412Z,52.05
2023-04-14T14:27:53.684Z,53.85
2023-04-14T14:30:30.568Z,53.13
2023-04-14T14:33:01.927Z,51.77
2023-04-14T14:35:33.432Z,52.75
2023-04-14T14:38:04.796Z,48.63
2023-04-14T14:40:36.408Z,49.55
2023-04-14T14:43:07.477Z,47.75
2023-04-14T14:45:39.541Z,48.60
2023-04-14T14:48:12.060Z,45.05
2023-04-14T14:50:43.382Z,46.88
2023-04-14T14:53:14.447Z,46.13
2023-04-14T14:55:45.746Z,45.52
2023-04-14T14:58:17.322Z,45.67
2023-04-14T15:00:48.920Z,43.85
2023-04-14T15:03:21.284Z,43.75
2023-04-14T15:05:53.493Z,47.27
2023-04-14T15:08:25.298Z,44.33
2023-04-14T15:10:56.274Z,45.25
2023-04-14T15:13:27.394Z,44.50
2023-04-14T15:15:58.597Z,43.45
2023-04-14T15:18:29.758Z,44.67
2023-04-14T15:21:00.960Z,44.48
2023-04-14T15:23:33.339Z,44.50
2023-04-14T15:26:04.444Z,44.25
2023-04-14T15:28:35.547Z,43.42
2023-04-14T15:31:06.658Z,45.88
2023-04-14T15:33:37.742Z,48.25
2023-04-14T15:36:09.062Z,46.18
2023-04-14T15:38:41.258Z,45.00
2023-04-14T15:41:12.433Z,44.53
2023-04-14T15:43:43.448Z,45.60
2023-04-14T15:46:15.730Z,43.65
2023-04-14T15:48:46.838Z,45.78
2023-04-14T15:51:17.917Z,47.27
2023-04-14T15:53:49.322Z,45.00
2023-04-14T15:56:20.613Z,47.48
2023-04-14T15:58:51.705Z,46.28
2023-04-14T16:01:22.873Z,47.27
2023-04-14T16:03:54.047Z,49.60
2023-04-14T16:06:25.216Z,50.20
2023-04-14T16:08:56.348Z,48.92
2023-04-14T16:11:27.438Z,45.55
2023-04-14T16:13:58.533Z,46.33
2023-04-14T16:16:29.636Z,45.38
2023-04-14T16:19:01.153Z,45.78
2023-04-14T16:21:32.442Z,43.30
2023-04-14T16:24:03.825Z,46.33
2023-04-14T16:26:35.256Z,45.52
2023-04-14T16:29:06.411Z,47.45
2023-04-14T16:31:37.563Z,47.55
2023-04-14T16:34:08.825Z,44.73
2023-04-14T16:36:39.973Z,44.10
2023-04-14T16:39:11.013Z,44.95
2023-04-14T16:41:42.329Z,46.08
2023-04-14T16:44:13.556Z,46.23
2023-04-14T16:46:44.845Z,44.65
2023-04-14T16:49:16.306Z,46.00
2023-04-14T16:51:47.420Z,44.55
2023-04-14T16:54:18.546Z,44.00
2023-04-14T16:56:50.120Z,43.00
2023-04-14T16:59:21.420Z,40.88
2023-04-14T17:01:52.882Z,42.33
2023-04-14T17:04:24.878Z,39.92
2023-04-14T17:06:56.396Z,41.25
2023-04-14T17:09:27.488Z,41.55
2023-04-14T17:11:58.677Z,40.92
2023-04-14T17:14:29.810Z,41.63
2023-04-14T17:17:01.483Z,40.70
2023-04-14T17:19:32.669Z,40.00
2023-04-14T17:22:03.907Z,40.05
2023-04-14T17:24:35.038Z,40.63
2023-04-14T17:27:06.579Z,40.15
2023-04-14T17:29:37.980Z,41.35
2023-04-14T17:32:09.806Z,41.73
2023-04-14T17:34:41.094Z,39.92
2023-04-14T17:37:12.355Z,38.60
2023-04-14T17:39:44.528Z,39.60
2023-04-14T17:42:15.943Z,39.75
2023-04-14T17:44:46.935Z,39.25
2023-04-14T17:47:18.015Z,40.10
2023-04-14T17:49:50.632Z,39.42
2023-04-14T17:52:22.197Z,40.38
2023-04-14T17:54:53.466Z,40.10
2023-04-14T17:57:24.617Z,40.50
2023-04-14T17:59:56.303Z,41.05
2023-04-14T18:02:27.691Z,41.48
2023-04-14T18:04:58.933Z,41.75
2023-04-14T18:07:30.085Z,40.58
2023-04-14T18:10:01.177Z,41.45
2023-04-14T18:12:32.469Z,41.42
2023-04-14T18:15:03.462Z,41.15
2023-04-14T18:17:35.898Z,40.00
2023-04-14T18:20:07.698Z,41.30
2023-04-14T18:22:38.793Z,42.45
2023-04-14T18:25:10.814Z,41.92
2023-04-14T18:30:14.932Z,43.73
2023-04-14T18:32:45.965Z,43.23
2023-04-14T18:35:17.044Z,41.85
2023-04-14T18:37:48.031Z,42.48
2023-04-14T18:40:19.169Z,41.28
2023-04-14T18:42:50.907Z,42.50
2023-04-14T18:45:22.133Z,43.20
2023-04-14T18:47:53.182Z,41.60
2023-04-14T18:50:24.310Z,42.48
2023-04-14T18:52:56.319Z,42.03
2023-04-14T18:55:40.459Z,42.08
2023-04-14T18:57:59.805Z,41.50
2023-04-14T19:00:31.007Z,41.40
2023-04-14T19:03:03.936Z,42.83
2023-04-14T19:05:36.251Z,41.50
2023-04-14T19:08:08.348Z,42.13
2023-04-14T19:10:39.653Z,44.67
2023-04-14T19:13:11.918Z,43.65
2023-04-14T19:15:43.811Z,43.83
2023-04-14T19:18:14.890Z,44.18
2023-04-14T19:20:47.263Z,43.95
2023-04-14T19:23:18.348Z,44.45
2023-04-14T19:25:49.724Z,43.52
2023-04-14T19:28:20.669Z,44.90
2023-04-14T19:30:51.745Z,44.98
2023-04-14T19:33:23.456Z,44.42
2023-04-14T19:35:55.645Z,45.33
2023-04-14T19:38:26.825Z,46.10
2023-04-14T19:40:58.174Z,46.20
2023-04-14T19:43:29.454Z,47.30
2023-04-14T19:46:01.807Z,47.35
2023-04-14T19:48:34.286Z,45.52
2023-04-14T19:51:05.396Z,48.87
2023-04-14T19:53:36.479Z,49.35
2023-04-14T19:56:08.213Z,47.75
2023-04-14T19:58:39.174Z,49.20
2023-04-14T20:01:10.740Z,49.65
2023-04-14T20:04:11.015Z,50.05
2023-04-14T20:06:15.409Z,49.88
2023-04-14T20:08:46.607Z,49.15
2023-04-14T20:11:18.591Z,49.05
2023-04-14T20:13:49.797Z,48.28
2023-04-14T20:16:20.914Z,48.75
2023-04-14T20:18:52.126Z,49.45
2023-04-14T20:21:23.249Z,49.63
2023-04-14T20:23:54.362Z,50.48
2023-04-14T20:26:25.487Z,49.50
2023-04-14T20:28:57.152Z,50.40
2023-04-14T20:31:28.234Z,48.92
2023-04-14T20:33:59.435Z,49.88
2023-04-14T20:36:31.675Z,49.25
2023-04-14T20:39:03.083Z,49.00
2023-04-14T20:41:35.776Z,50.88
2023-04-14T20:44:06.718Z,51.02
2023-04-14T20:46:37.878Z,49.70
2023-04-14T20:49:09.014Z,50.45
2023-04-14T20:51:40.604Z,52.58
2023-04-14T20:54:11.608Z,50.85
2023-04-14T20:56:42.726Z,50.43
2023-04-14T20:59:14.601Z,50.58
2023-04-14T21:01:47.762Z,50.28
2023-04-14T21:04:19.012Z,49.60
2023-04-14T21:06:50.400Z,50.20
2023-04-14T21:09:23.134Z,51.42
2023-04-14T21:12:14.862Z,50.88
2023-04-14T21:15:43.539Z,52.38
2023-04-14T21:16:59.598Z,52.80
2023-04-14T21:19:30.829Z,50.48
2023-04-14T21:22:01.893Z,53.20
2023-04-14T21:24:33.222Z,50.63
2023-04-14T21:27:04.895Z,53.75
2023-04-14T21:29:35.883Z,52.48
2023-04-14T21:32:07.074Z,51.88
2023-04-14T21:34:38.423Z,50.65
2023-04-14T21:37:10.247Z,51.45
2023-04-14T21:39:41.865Z,51.50
2023-04-14T21:42:12.949Z,51.80
2023-04-14T21:44:44.100Z,51.95
2023-04-14T21:47:15.253Z,53.40
2023-04-14T21:49:46.408Z,51.73
2023-04-14T21:52:17.538Z,51.95
2023-04-14T21:54:48.830Z,55.33
2023-04-14T21:57:42.546Z,51.18
2023-04-14T21:59:52.791Z,53.70
2023-04-14T22:02:23.919Z,53.48
2023-04-14T22:04:55.106Z,54.15
2023-04-14T22:07:26.267Z,52.33
2023-04-14T22:09:57.349Z,53.58
2023-04-14T22:12:29.009Z,55.95
2023-04-14T22:15:00.506Z,56.13
2023-04-14T22:17:31.643Z,54.55
2023-04-14T22:20:02.984Z,55.15
2023-04-14T22:22:34.178Z,55.70
2023-04-14T22:25:06.104Z,54.55
2023-04-14T22:27:37.264Z,56.15
2023-04-14T22:30:09.314Z,56.65
2023-04-14T22:32:40.526Z,56.75
2023-04-14T22:35:12.157Z,56.68
2023-04-14T22:37:43.344Z,56.83
2023-04-14T22:40:14.857Z,56.05
2023-04-14T22:42:46.119Z,55.73
2023-04-14T22:45:17.196Z,58.00
2023-04-14T22:47:49.485Z,56.48
2023-04-14T22:50:20.597Z,57.25
2023-04-14T22:52:51.665Z,56.75
2023-04-14T22:55:22.776Z,58.50
2023-04-14T22:57:53.741Z,57.58
2023-04-14T23:00:25.163Z,56.80
2023-04-14T23:02:56.989Z,56.83
2023-04-14T23:05:28.155Z,56.35
2023-04-14T23:07:59.240Z,57.78
2023-04-14T23:10:30.461Z,57.80
2023-04-14T23:13:01.616Z,57.90
2023-04-14T23:15:33.456Z,58.50
2023-04-14T23:18:04.592Z,59.03
2023-04-14T23:20:35.765Z,58.05
2023-04-14T23:23:07.428Z,58.92
2023-04-14T23:25:38.620Z,58.85
2023-04-14T23:28:10.713Z,59.03
2023-04-14T23:30:43.967Z,58.60
2023-04-14T23:33:15.065Z,59.20
2023-04-14T23:35:46.478Z,59.00
2023-04-14T23:38:19.369Z,58.70
2023-04-14T23:40:50.853Z,57.27
2023-04-14T23:43:23.229Z,59.05
2023-04-14T23:45:54.515Z,60.38
2023-04-14T23:48:25.593Z,60.63
2023-04-14T23:51:00.550Z,59.48
2023-04-14T23:53:29.261Z,58.70
2023-04-14T23:56:00.350Z,59.05
2023-04-14T23:58:31.464Z,60.38
